sensor_id;sensor_type;location;lat;lon;timestamp;pressure;altitude;pressure_sealevel;temperature;humidity
60820;BME280;46641;48.904;9.126;2022-11-11T00:01:31;100001.09;;;14.33;58.00
60820;BME280;46641;48.904;9.126;2022-11-11T00:06:21;99997.88;;;14.30;58.23
60820;BME280;46641;48.904;9.126;2022-11-11T00:11:12;99999.00;;;14.27;58.15
60820;BME280;46641;48.904;9.126;2022-11-11T00:16:11;100002.72;;;14.24;57.81
60820;BME280;46641;48.904;9.126;2022-11-11T00:21:01;100012.69;;;14.21;58.35
60820;BME280;46641;48.904;9.126;2022-11-11T00:26:12;100009.50;;;14.17;58.60
60820;BME280;46641;48.904;9.126;2022-11-11T00:31:05;100002.69;;;14.15;58.45
60820;BME280;46641;48.904;9.126;2022-11-11T00:35:55;100007.41;;;14.11;58.48
60820;BME280;46641;48.904;9.126;2022-11-11T00:40:46;100013.59;;;14.10;58.43
60820;BME280;46641;48.904;9.126;2022-11-11T00:45:36;100012.94;;;14.08;58.51
60820;BME280;46641;48.904;9.126;2022-11-11T00:50:28;100030.78;;;14.05;58.62
60820;BME280;46641;48.904;9.126;2022-11-11T00:55:37;100044.22;;;14.01;58.70
60820;BME280;46641;48.904;9.126;2022-11-11T01:00:27;100044.34;;;14.00;58.42
60820;BME280;46641;48.904;9.126;2022-11-11T01:05:17;100042.81;;;13.97;58.69
60820;BME280;46641;48.904;9.126;2022-11-11T01:10:08;100027.97;;;13.96;58.68
60820;BME280;46641;48.904;9.126;2022-11-11T01:14:58;100023.69;;;13.95;58.73
60820;BME280;46641;48.904;9.126;2022-11-11T01:19:49;100016.88;;;13.93;58.44
60820;BME280;46641;48.904;9.126;2022-11-11T01:24:39;100019.75;;;13.90;58.83
60820;BME280;46641;48.904;9.126;2022-11-11T01:29:29;100025.19;;;13.88;59.07
60820;BME280;46641;48.904;9.126;2022-11-11T01:34:20;100032.34;;;13.86;58.87
60820;BME280;46641;48.904;9.126;2022-11-11T01:39:11;100035.25;;;13.83;58.94
60820;BME280;46641;48.904;9.126;2022-11-11T01:59:20;100026.47;;;13.73;58.93
60820;BME280;46641;48.904;9.126;2022-11-11T02:04:10;100040.59;;;13.72;59.36
60820;BME280;46641;48.904;9.126;2022-11-11T02:09:21;100035.59;;;13.69;59.49
60820;BME280;46641;48.904;9.126;2022-11-11T02:14:13;100037.41;;;13.68;59.27
60820;BME280;46641;48.904;9.126;2022-11-11T02:19:31;100042.06;;;13.65;58.96
60820;BME280;46641;48.904;9.126;2022-11-11T02:24:25;100044.00;;;13.63;59.33
60820;BME280;46641;48.904;9.126;2022-11-11T02:29:18;100052.00;;;13.61;59.37
60820;BME280;46641;48.904;9.126;2022-11-11T02:34:09;100045.22;;;13.59;59.52
60820;BME280;46641;48.904;9.126;2022-11-11T02:38:59;100035.78;;;13.56;59.75
60820;BME280;46641;48.904;9.126;2022-11-11T02:43:50;100038.44;;;13.56;59.55
60820;BME280;46641;48.904;9.126;2022-11-11T02:48:40;100036.75;;;13.55;59.55
60820;BME280;46641;48.904;9.126;2022-11-11T02:53:31;100032.59;;;13.52;59.70
60820;BME280;46641;48.904;9.126;2022-11-11T02:58:21;100016.09;;;13.50;59.70
60820;BME280;46641;48.904;9.126;2022-11-11T03:03:11;100026.75;;;13.49;59.63
60820;BME280;46641;48.904;9.126;2022-11-11T03:08:02;100025.22;;;13.46;59.53
60820;BME280;46641;48.904;9.126;2022-11-11T03:12:52;100014.81;;;13.45;59.66
60820;BME280;46641;48.904;9.126;2022-11-11T03:17:42;100013.97;;;13.44;59.48
60820;BME280;46641;48.904;9.126;2022-11-11T03:22:33;100019.50;;;13.41;59.90
60820;BME280;46641;48.904;9.126;2022-11-11T03:27:23;100016.28;;;13.38;60.01
60820;BME280;46641;48.904;9.126;2022-11-11T03:32:13;100014.75;;;13.35;59.74
60820;BME280;46641;48.904;9.126;2022-11-11T03:37:06;100010.44;;;13.34;59.81
60820;BME280;46641;48.904;9.126;2022-11-11T03:42:15;100016.94;;;13.30;59.69
60820;BME280;46641;48.904;9.126;2022-11-11T03:47:05;100021.22;;;13.31;59.97
60820;BME280;46641;48.904;9.126;2022-11-11T03:51:55;100034.63;;;13.28;60.10
60820;BME280;46641;48.904;9.126;2022-11-11T03:56:46;100045.13;;;13.28;59.88
60820;BME280;46641;48.904;9.126;2022-11-11T04:01:36;100063.53;;;13.28;59.98
60820;BME280;46641;48.904;9.126;2022-11-11T04:06:45;100066.44;;;13.25;59.97
60820;BME280;46641;48.904;9.126;2022-11-11T04:11:54;100071.78;;;13.23;59.67
60820;BME280;46641;48.904;9.126;2022-11-11T04:16:44;100050.88;;;13.22;60.31
60820;BME280;46641;48.904;9.126;2022-11-11T04:21:34;100049.22;;;13.21;60.09
60820;BME280;46641;48.904;9.126;2022-11-11T04:26:33;100055.44;;;13.20;60.26
60820;BME280;46641;48.904;9.126;2022-11-11T04:31:24;100056.38;;;13.19;60.38
60820;BME280;46641;48.904;9.126;2022-11-11T04:36:14;100051.25;;;13.17;60.47
60820;BME280;46641;48.904;9.126;2022-11-11T04:41:04;100050.53;;;13.15;60.21
60820;BME280;46641;48.904;9.126;2022-11-11T04:45:58;100074.34;;;13.14;60.41
60820;BME280;46641;48.904;9.126;2022-11-11T04:50:49;100083.16;;;13.13;60.17
60820;BME280;46641;48.904;9.126;2022-11-11T04:55:41;100098.25;;;13.10;60.42
60820;BME280;46641;48.904;9.126;2022-11-11T05:00:50;100099.31;;;13.08;60.24
60820;BME280;46641;48.904;9.126;2022-11-11T05:05:52;100093.34;;;13.06;59.98
60820;BME280;46641;48.904;9.126;2022-11-11T05:11:01;100103.03;;;13.05;60.59
60820;BME280;46641;48.904;9.126;2022-11-11T05:15:51;100117.13;;;13.04;60.42
60820;BME280;46641;48.904;9.126;2022-11-11T05:21:00;100126.00;;;13.03;60.41
60820;BME280;46641;48.904;9.126;2022-11-11T05:26:09;100126.81;;;13.04;60.55
60820;BME280;46641;48.904;9.126;2022-11-11T05:30:59;100126.25;;;13.00;60.42
60820;BME280;46641;48.904;9.126;2022-11-11T05:35:50;100131.50;;;13.00;60.35
60820;BME280;46641;48.904;9.126;2022-11-11T05:40:40;100135.06;;;12.99;60.68
60820;BME280;46641;48.904;9.126;2022-11-11T05:45:30;100137.00;;;12.97;60.58
60820;BME280;46641;48.904;9.126;2022-11-11T05:50:20;100145.81;;;12.96;60.68
60820;BME280;46641;48.904;9.126;2022-11-11T05:55:11;100163.50;;;12.94;60.45
60820;BME280;46641;48.904;9.126;2022-11-11T06:00:02;100158.25;;;12.94;60.49
60820;BME280;46641;48.904;9.126;2022-11-11T06:04:53;100163.75;;;12.91;60.98
60820;BME280;46641;48.904;9.126;2022-11-11T06:09:44;100173.31;;;12.92;60.68
60820;BME280;46641;48.904;9.126;2022-11-11T06:14:34;100182.97;;;12.92;60.63
60820;BME280;46641;48.904;9.126;2022-11-11T06:19:25;100193.50;;;12.35;57.85
60820;BME280;46641;48.904;9.126;2022-11-11T06:24:15;100186.69;;;12.33;56.58
60820;BME280;46641;48.904;9.126;2022-11-11T06:29:06;100193.63;;;11.99;56.81
60820;BME280;46641;48.904;9.126;2022-11-11T06:33:56;100198.84;;;12.23;57.11
60820;BME280;46641;48.904;9.126;2022-11-11T06:38:47;100191.19;;;12.31;57.05
60820;BME280;46641;48.904;9.126;2022-11-11T06:43:38;100197.91;;;12.35;57.56
60820;BME280;46641;48.904;9.126;2022-11-11T06:48:28;100194.09;;;12.39;57.36
60820;BME280;46641;48.904;9.126;2022-11-11T06:53:19;100195.75;;;12.40;57.91
60820;BME280;46641;48.904;9.126;2022-11-11T06:58:18;100197.31;;;12.43;57.77
60820;BME280;46641;48.904;9.126;2022-11-11T07:03:11;100198.28;;;12.42;58.06
60820;BME280;46641;48.904;9.126;2022-11-11T07:08:08;100201.59;;;12.44;57.94
60820;BME280;46641;48.904;9.126;2022-11-11T07:12:58;100199.94;;;12.43;58.14
60820;BME280;46641;48.904;9.126;2022-11-11T07:17:49;100198.03;;;12.45;58.43
60820;BME280;46641;48.904;9.126;2022-11-11T07:22:39;100204.22;;;12.44;58.37
60820;BME280;46641;48.904;9.126;2022-11-11T07:27:29;100207.69;;;12.44;58.87
60820;BME280;46641;48.904;9.126;2022-11-11T07:32:20;100210.44;;;12.43;59.05
60820;BME280;46641;48.904;9.126;2022-11-11T07:37:10;100205.78;;;12.46;58.74
60820;BME280;46641;48.904;9.126;2022-11-11T07:42:01;100206.63;;;12.47;59.07
60820;BME280;46641;48.904;9.126;2022-11-11T07:46:51;100208.28;;;12.48;59.23
60820;BME280;46641;48.904;9.126;2022-11-11T07:51:41;100215.09;;;12.50;59.26
60820;BME280;46641;48.904;9.126;2022-11-11T07:56:32;100205.31;;;12.52;59.32
60820;BME280;46641;48.904;9.126;2022-11-11T08:01:22;100214.16;;;12.51;59.28
60820;BME280;46641;48.904;9.126;2022-11-11T08:06:12;100218.31;;;12.54;59.26
60820;BME280;46641;48.904;9.126;2022-11-11T08:11:03;100219.16;;;12.54;59.47
60820;BME280;46641;48.904;9.126;2022-11-11T08:15:54;100212.25;;;12.53;59.45
60820;BME280;46641;48.904;9.126;2022-11-11T08:20:44;100214.75;;;12.55;59.81
60820;BME280;46641;48.904;9.126;2022-11-11T08:25:36;100215.47;;;12.57;59.50
60820;BME280;46641;48.904;9.126;2022-11-11T08:30:26;100217.97;;;12.58;59.76
60820;BME280;46641;48.904;9.126;2022-11-11T08:35:16;100209.97;;;12.60;59.71
60820;BME280;46641;48.904;9.126;2022-11-11T08:40:07;100213.44;;;12.60;59.78
60820;BME280;46641;48.904;9.126;2022-11-11T08:44:57;100224.66;;;12.62;59.81
60820;BME280;46641;48.904;9.126;2022-11-11T08:49:48;100222.03;;;12.62;60.07
60820;BME280;46641;48.904;9.126;2022-11-11T08:54:41;100223.59;;;12.65;60.00
60820;BME280;46641;48.904;9.126;2022-11-11T08:59:31;100228.63;;;12.68;59.94
60820;BME280;46641;48.904;9.126;2022-11-11T09:04:22;100217.97;;;12.70;60.06
60820;BME280;46641;48.904;9.126;2022-11-11T09:09:13;100219.53;;;12.72;60.04
60820;BME280;46641;48.904;9.126;2022-11-11T09:14:03;100222.75;;;12.76;60.23
60820;BME280;46641;48.904;9.126;2022-11-11T09:18:53;100212.84;;;12.79;60.28
60820;BME280;46641;48.904;9.126;2022-11-11T09:23:44;100208.19;;;12.83;60.25
60820;BME280;46641;48.904;9.126;2022-11-11T09:28:34;100214.63;;;12.90;60.22
60820;BME280;46641;48.904;9.126;2022-11-11T09:33:25;100208.66;;;12.99;59.70
60820;BME280;46641;48.904;9.126;2022-11-11T09:38:15;100201.97;;;13.06;60.18
60820;BME280;46641;48.904;9.126;2022-11-11T09:43:16;100199.69;;;13.13;59.59
60820;BME280;46641;48.904;9.126;2022-11-11T09:48:18;100191.19;;;13.21;60.08
60820;BME280;46641;48.904;9.126;2022-11-11T09:53:29;100195.75;;;13.30;59.86
60820;BME280;46641;48.904;9.126;2022-11-11T10:03:20;100191.16;;;13.43;60.20
60820;BME280;46641;48.904;9.126;2022-11-11T10:13:31;100197.94;;;13.57;59.94
60820;BME280;46641;48.904;9.126;2022-11-11T10:23:36;100205.19;;;13.65;59.61
60820;BME280;46641;48.904;9.126;2022-11-11T10:28:31;100201.44;;;13.78;59.60
60820;BME280;46641;48.904;9.126;2022-11-11T10:33:40;100202.34;;;13.89;59.51
60820;BME280;46641;48.904;9.126;2022-11-11T10:38:54;100204.16;;;14.09;59.10
60820;BME280;46641;48.904;9.126;2022-11-11T10:43:47;100208.25;;;14.23;59.09
60820;BME280;46641;48.904;9.126;2022-11-11T10:49:06;100192.78;;;14.30;58.53
60820;BME280;46641;48.904;9.126;2022-11-11T10:54:17;100177.28;;;14.36;58.56
60820;BME280;46641;48.904;9.126;2022-11-11T10:59:19;100170.41;;;14.45;58.45
60820;BME280;46641;48.904;9.126;2022-11-11T11:04:35;100174.19;;;14.52;58.51
60820;BME280;46641;48.904;9.126;2022-11-11T11:09:35;100165.66;;;14.60;58.48
60820;BME280;46641;48.904;9.126;2022-11-11T11:14:32;100157.34;;;14.64;58.83
60820;BME280;46641;48.904;9.126;2022-11-11T11:19:25;100155.72;;;14.73;58.81
60820;BME280;46641;48.904;9.126;2022-11-11T11:29:10;100146.47;;;14.88;58.60
60820;BME280;46641;48.904;9.126;2022-11-11T11:34:01;100158.16;;;14.95;58.94
60820;BME280;46641;48.904;9.126;2022-11-11T11:38:51;100157.63;;;15.02;58.57
60820;BME280;46641;48.904;9.126;2022-11-11T11:43:42;100146.38;;;15.09;58.49
60820;BME280;46641;48.904;9.126;2022-11-11T11:48:52;100155.41;;;15.16;58.38
60820;BME280;46641;48.904;9.126;2022-11-11T12:10:02;100142.66;;;15.41;58.71
60820;BME280;46641;48.904;9.126;2022-11-11T12:15:19;100137.66;;;15.48;59.21
60820;BME280;46641;48.904;9.126;2022-11-11T12:21:36;100142.13;;;15.57;58.96
60820;BME280;46641;48.904;9.126;2022-11-11T12:26:08;100133.34;;;15.66;58.90
60820;BME280;46641;48.904;9.126;2022-11-11T12:36:01;100146.84;;;15.82;58.92
60820;BME280;46641;48.904;9.126;2022-11-11T12:46:15;100127.09;;;15.96;58.82
60820;BME280;46641;48.904;9.126;2022-11-11T12:56:48;100120.81;;;16.07;58.50
60820;BME280;46641;48.904;9.126;2022-11-11T13:06:46;100124.25;;;16.17;58.57
60820;BME280;46641;48.904;9.126;2022-11-11T13:12:04;100124.78;;;16.21;58.34
60820;BME280;46641;48.904;9.126;2022-11-11T13:16:59;100112.13;;;16.24;58.41
60820;BME280;46641;48.904;9.126;2022-11-11T13:21:53;100111.00;;;16.27;58.36
60820;BME280;46641;48.904;9.126;2022-11-11T13:26:59;100107.09;;;16.31;57.88
60820;BME280;46641;48.904;9.126;2022-11-11T13:31:53;100105.16;;;16.33;58.23
60820;BME280;46641;48.904;9.126;2022-11-11T13:36:48;100108.34;;;16.36;57.93
60820;BME280;46641;48.904;9.126;2022-11-11T13:41:40;100103.75;;;16.39;57.76
60820;BME280;46641;48.904;9.126;2022-11-11T13:46:43;100104.56;;;16.39;57.42
60820;BME280;46641;48.904;9.126;2022-11-11T13:51:39;100114.03;;;16.42;57.57
60820;BME280;46641;48.904;9.126;2022-11-11T13:56:35;100110.41;;;16.43;57.64
60820;BME280;46641;48.904;9.126;2022-11-11T14:01:34;100100.53;;;16.45;57.72
60820;BME280;46641;48.904;9.126;2022-11-11T14:06:34;100101.19;;;16.47;57.48
60820;BME280;46641;48.904;9.126;2022-11-11T14:21:53;100107.00;;;16.50;57.49
60820;BME280;46641;48.904;9.126;2022-11-11T14:26:56;100118.13;;;16.54;57.22
60820;BME280;46641;48.904;9.126;2022-11-11T14:31:55;100123.13;;;16.57;56.75
60820;BME280;46641;48.904;9.126;2022-11-11T14:42:44;100132.03;;;16.56;56.99
60820;BME280;46641;48.904;9.126;2022-11-11T14:47:41;100129.28;;;16.57;56.77
60820;BME280;46641;48.904;9.126;2022-11-11T14:52:38;100125.47;;;16.60;56.66
60820;BME280;46641;48.904;9.126;2022-11-11T14:57:33;100122.84;;;16.60;56.67
60820;BME280;46641;48.904;9.126;2022-11-11T15:02:33;100118.38;;;16.60;56.69
60820;BME280;46641;48.904;9.126;2022-11-11T15:18:42;100119.38;;;16.59;56.87
60820;BME280;46641;48.904;9.126;2022-11-11T15:23:54;100119.66;;;16.56;56.82
60820;BME280;46641;48.904;9.126;2022-11-11T15:38:35;100118.13;;;16.54;56.44
60820;BME280;46641;48.904;9.126;2022-11-11T15:43:27;100120.09;;;16.52;56.47
60820;BME280;46641;48.904;9.126;2022-11-11T15:48:21;100122.03;;;16.50;56.36
60820;BME280;46641;48.904;9.126;2022-11-11T15:53:13;100126.25;;;16.43;56.64
60820;BME280;46641;48.904;9.126;2022-11-11T16:02:59;100126.59;;;16.30;56.94
60820;BME280;46641;48.904;9.126;2022-11-11T16:07:52;100127.97;;;16.24;57.01
60820;BME280;46641;48.904;9.126;2022-11-11T16:12:44;100119.22;;;16.24;57.11
60820;BME280;46641;48.904;9.126;2022-11-11T16:17:40;100122.16;;;16.21;57.05
60820;BME280;46641;48.904;9.126;2022-11-11T16:22:34;100110.22;;;16.17;57.25
60820;BME280;46641;48.904;9.126;2022-11-11T16:27:31;100112.16;;;16.15;57.01
60820;BME280;46641;48.904;9.126;2022-11-11T16:37:13;100112.75;;;15.99;56.92
60820;BME280;46641;48.904;9.126;2022-11-11T16:42:36;100116.97;;;15.72;57.49
60820;BME280;46641;48.904;9.126;2022-11-11T16:52:23;100116.56;;;15.48;57.35
60820;BME280;46641;48.904;9.126;2022-11-11T16:57:19;100123.38;;;15.40;57.15
60820;BME280;46641;48.904;9.126;2022-11-11T17:02:18;100122.78;;;15.27;56.92
60820;BME280;46641;48.904;9.126;2022-11-11T17:07:26;100125.84;;;15.23;56.71
60820;BME280;46641;48.904;9.126;2022-11-11T17:12:28;100112.81;;;15.11;56.87
60820;BME280;46641;48.904;9.126;2022-11-11T17:17:19;100113.47;;;15.04;57.13
60820;BME280;46641;48.904;9.126;2022-11-11T17:22:10;100129.81;;;14.98;57.05
60820;BME280;46641;48.904;9.126;2022-11-11T17:27:02;100119.53;;;14.94;56.76
60820;BME280;46641;48.904;9.126;2022-11-11T17:31:52;100130.66;;;14.88;56.54
60820;BME280;46641;48.904;9.126;2022-11-11T17:36:42;100143.53;;;14.82;56.57
60820;BME280;46641;48.904;9.126;2022-11-11T17:41:33;100152.66;;;14.78;56.39
60820;BME280;46641;48.904;9.126;2022-11-11T17:46:23;100154.84;;;14.63;56.76
60820;BME280;46641;48.904;9.126;2022-11-11T17:51:13;100146.38;;;14.59;56.96
60820;BME280;46641;48.904;9.126;2022-11-11T17:56:04;100145.09;;;14.54;56.63
60820;BME280;46641;48.904;9.126;2022-11-11T18:01:07;100140.31;;;14.47;56.85
60820;BME280;46641;48.904;9.126;2022-11-11T18:05:57;100136.16;;;14.45;56.53
60820;BME280;46641;48.904;9.126;2022-11-11T18:10:47;100139.44;;;14.37;56.74
60820;BME280;46641;48.904;9.126;2022-11-11T18:15:38;100134.25;;;14.26;56.51
60820;BME280;46641;48.904;9.126;2022-11-11T18:20:29;100133.13;;;14.49;56.43
60820;BME280;46641;48.904;9.126;2022-11-11T18:25:20;100142.50;;;14.63;56.07
60820;BME280;46641;48.904;9.126;2022-11-11T18:30:10;100150.97;;;14.67;55.82
60820;BME280;46641;48.904;9.126;2022-11-11T18:35:00;100154.31;;;14.69;55.80
60820;BME280;46641;48.904;9.126;2022-11-11T18:39:51;100159.72;;;14.67;55.94
60820;BME280;46641;48.904;9.126;2022-11-11T18:44:41;100148.34;;;14.67;56.15
60820;BME280;46641;48.904;9.126;2022-11-11T18:49:32;100153.63;;;14.67;55.93
60820;BME280;46641;48.904;9.126;2022-11-11T18:54:22;100156.25;;;14.67;56.26
60820;BME280;46641;48.904;9.126;2022-11-11T18:59:12;100144.56;;;14.60;56.27
60820;BME280;46641;48.904;9.126;2022-11-11T19:04:05;100144.00;;;14.56;56.45
60820;BME280;46641;48.904;9.126;2022-11-11T19:08:58;100147.84;;;14.52;56.76
60820;BME280;46641;48.904;9.126;2022-11-11T19:13:49;100150.63;;;14.51;56.61
60820;BME280;46641;48.904;9.126;2022-11-11T19:18:40;100143.94;;;14.46;56.79
60820;BME280;46641;48.904;9.126;2022-11-11T19:23:30;100149.47;;;14.43;56.73
60820;BME280;46641;48.904;9.126;2022-11-11T19:28:20;100148.75;;;14.41;56.70
60820;BME280;46641;48.904;9.126;2022-11-11T19:33:11;100150.00;;;14.37;57.08
60820;BME280;46641;48.904;9.126;2022-11-11T19:38:01;100151.09;;;14.35;57.12
60820;BME280;46641;48.904;9.126;2022-11-11T19:42:52;100158.28;;;14.33;57.12
60820;BME280;46641;48.904;9.126;2022-11-11T19:47:46;100153.41;;;14.28;57.32
60820;BME280;46641;48.904;9.126;2022-11-11T19:52:38;100169.47;;;14.25;57.23
60820;BME280;46641;48.904;9.126;2022-11-11T19:57:29;100157.28;;;14.24;57.34
60820;BME280;46641;48.904;9.126;2022-11-11T20:02:19;100159.19;;;14.22;57.17
60820;BME280;46641;48.904;9.126;2022-11-11T20:07:09;100174.28;;;14.20;57.08
60820;BME280;46641;48.904;9.126;2022-11-11T20:12:00;100170.13;;;14.17;57.17
60820;BME280;46641;48.904;9.126;2022-11-11T20:16:50;100178.13;;;14.16;57.20
60820;BME280;46641;48.904;9.126;2022-11-11T20:21:40;100184.38;;;14.15;57.58
60820;BME280;46641;48.904;9.126;2022-11-11T20:26:33;100184.63;;;14.12;57.33
60820;BME280;46641;48.904;9.126;2022-11-11T20:31:25;100195.28;;;14.10;57.40
60820;BME280;46641;48.904;9.126;2022-11-11T20:36:17;100196.41;;;14.08;57.25
60820;BME280;46641;48.904;9.126;2022-11-11T20:41:12;100195.69;;;14.06;57.19
60820;BME280;46641;48.904;9.126;2022-11-11T20:46:05;100199.38;;;14.03;57.42
60820;BME280;46641;48.904;9.126;2022-11-11T20:51:03;100198.72;;;14.01;57.01
60820;BME280;46641;48.904;9.126;2022-11-11T20:56:16;100192.72;;;13.99;57.09
60820;BME280;46641;48.904;9.126;2022-11-11T21:01:12;100197.41;;;13.95;57.45
60820;BME280;46641;48.904;9.126;2022-11-11T21:06:05;100195.03;;;13.92;57.57
60820;BME280;46641;48.904;9.126;2022-11-11T21:10:56;100197.78;;;13.91;57.82
60820;BME280;46641;48.904;9.126;2022-11-11T21:15:47;100190.16;;;13.88;58.11
60820;BME280;46641;48.904;9.126;2022-11-11T21:20:37;100195.53;;;13.86;57.89
60820;BME280;46641;48.904;9.126;2022-11-11T21:25:27;100202.72;;;13.84;57.72
60820;BME280;46641;48.904;9.126;2022-11-11T21:30:17;100200.31;;;13.81;57.62
60820;BME280;46641;48.904;9.126;2022-11-11T21:35:08;100197.84;;;13.79;57.50
60820;BME280;46641;48.904;9.126;2022-11-11T21:39:58;100183.97;;;13.77;57.92
60820;BME280;46641;48.904;9.126;2022-11-11T21:44:48;100181.47;;;13.76;57.72
60820;BME280;46641;48.904;9.126;2022-11-11T21:49:38;100185.31;;;13.72;57.69
60820;BME280;46641;48.904;9.126;2022-11-11T21:54:29;100180.06;;;13.72;57.85
60820;BME280;46641;48.904;9.126;2022-11-11T21:59:19;100180.31;;;13.69;58.26
60820;BME280;46641;48.904;9.126;2022-11-11T22:04:11;100176.13;;;13.66;58.04
60820;BME280;46641;48.904;9.126;2022-11-11T22:09:02;100175.56;;;13.63;57.94
60820;BME280;46641;48.904;9.126;2022-11-11T22:13:54;100174.81;;;13.61;58.33
60820;BME280;46641;48.904;9.126;2022-11-11T22:18:45;100175.81;;;13.60;57.80
60820;BME280;46641;48.904;9.126;2022-11-11T22:23:37;100168.00;;;13.58;58.10
60820;BME280;46641;48.904;9.126;2022-11-11T22:28:28;100170.91;;;13.55;58.27
60820;BME280;46641;48.904;9.126;2022-11-11T22:33:18;100174.63;;;13.52;58.15
60820;BME280;46641;48.904;9.126;2022-11-11T22:38:09;100180.84;;;13.51;58.22
60820;BME280;46641;48.904;9.126;2022-11-11T22:43:00;100186.34;;;13.48;58.27
60820;BME280;46641;48.904;9.126;2022-11-11T22:47:50;100189.13;;;13.47;57.99
60820;BME280;46641;48.904;9.126;2022-11-11T22:52:40;100188.41;;;13.45;58.19
60820;BME280;46641;48.904;9.126;2022-11-11T22:57:30;100185.91;;;13.43;58.21
60820;BME280;46641;48.904;9.126;2022-11-11T23:02:21;100174.66;;;13.41;58.09
60820;BME280;46641;48.904;9.126;2022-11-11T23:07:11;100160.81;;;13.39;58.35
60820;BME280;46641;48.904;9.126;2022-11-11T23:12:01;100171.59;;;13.36;58.41
60820;BME280;46641;48.904;9.126;2022-11-11T23:16:52;100164.78;;;13.33;58.38
60820;BME280;46641;48.904;9.126;2022-11-11T23:21:42;100165.75;;;13.32;58.48
60820;BME280;46641;48.904;9.126;2022-11-11T23:26:32;100177.19;;;13.31;58.32
60820;BME280;46641;48.904;9.126;2022-11-11T23:31:28;100170.38;;;13.29;58.46
60820;BME280;46641;48.904;9.126;2022-11-11T23:36:21;100160.16;;;13.26;58.62
60820;BME280;46641;48.904;9.126;2022-11-11T23:41:12;100164.66;;;13.24;58.63
60820;BME280;46641;48.904;9.126;2022-11-11T23:46:03;100170.88;;;13.23;58.70
60820;BME280;46641;48.904;9.126;2022-11-11T23:50:53;100171.13;;;13.20;58.73
60820;BME280;46641;48.904;9.126;2022-11-11T23:55:44;100166.09;;;13.17;58.71
